Hurlburt Field, Florida
Current Conditions -  °F | °C
As of 1:47 AM on Sunday 23 Nov 2014 (Local Time) from KHRT Reporting Station
Overcast Overcast  
Wind Chill: 64°   Ceiling: 900
Heat Index: 64°   Visibility: 10mi
Dew Point: 61°   Wind: 14mph
Humidity: 88%   Direction: 90°E
Pressure: 29.87"   Gusts: 21mph
Location:  30.43°N, 86.69°W
Report Text: KHRT 230747Z AUTO 09012G18KT 10SM BKN009 OVC014 18/16 A2987 RMK AO2 RAB0705E0725DZE0705B0725E0727 CIG 006V009 CIG 005 RWY18 $
Loading
Personal Weather Stations






























Interactive Weather Map New forecast layout! Learn more

10-Day Weather Forecast

Advertisements
Track Severe Weather on mobile